sensor_id;sensor_type;location;lat;lon;timestamp;P1;durP1;ratioP1;P2;durP2;ratioP2
54201;SDS011;40108;53.152;5.844;2023-05-19T00:01:29;22.52;;;7.97;;
54201;SDS011;40108;53.152;5.844;2023-05-19T00:03:56;20.65;;;7.82;;
54201;SDS011;40108;53.152;5.844;2023-05-19T00:06:26;16.75;;;6.80;;
54201;SDS011;40108;53.152;5.844;2023-05-19T00:08:59;21.52;;;7.75;;
54201;SDS011;40108;53.152;5.844;2023-05-19T00:11:27;25.30;;;8.75;;
54201;SDS011;40108;53.152;5.844;2023-05-19T00:13:56;24.85;;;9.50;;
54201;SDS011;40108;53.152;5.844;2023-05-19T00:16:27;23.52;;;8.45;;
54201;SDS011;40108;53.152;5.844;2023-05-19T00:18:53;31.05;;;10.00;;
54201;SDS011;40108;53.152;5.844;2023-05-19T00:21:21;17.83;;;8.57;;
54201;SDS011;40108;53.152;5.844;2023-05-19T00:23:47;17.45;;;8.82;;
54201;SDS011;40108;53.152;5.844;2023-05-19T00:26:12;23.27;;;8.32;;
54201;SDS011;40108;53.152;5.844;2023-05-19T00:28:39;19.63;;;8.00;;
54201;SDS011;40108;53.152;5.844;2023-05-19T00:31:05;16.33;;;7.05;;
54201;SDS011;40108;53.152;5.844;2023-05-19T00:33:31;21.48;;;7.68;;
54201;SDS011;40108;53.152;5.844;2023-05-19T00:36:00;20.13;;;8.02;;
54201;SDS011;40108;53.152;5.844;2023-05-19T00:38:29;22.15;;;7.47;;
54201;SDS011;40108;53.152;5.844;2023-05-19T00:40:55;20.25;;;7.43;;
54201;SDS011;40108;53.152;5.844;2023-05-19T00:43:21;20.67;;;8.63;;
54201;SDS011;40108;53.152;5.844;2023-05-19T00:45:47;24.77;;;7.68;;
54201;SDS011;40108;53.152;5.844;2023-05-19T00:48:12;21.67;;;8.25;;
54201;SDS011;40108;53.152;5.844;2023-05-19T00:50:38;23.52;;;7.82;;
54201;SDS011;40108;53.152;5.844;2023-05-19T00:53:05;18.88;;;8.10;;
54201;SDS011;40108;53.152;5.844;2023-05-19T00:55:31;21.98;;;8.82;;
54201;SDS011;40108;53.152;5.844;2023-05-19T00:58:00;20.92;;;8.80;;
54201;SDS011;40108;53.152;5.844;2023-05-19T01:00:29;30.38;;;9.75;;
54201;SDS011;40108;53.152;5.844;2023-05-19T01:02:55;21.98;;;9.02;;
54201;SDS011;40108;53.152;5.844;2023-05-19T01:05:21;19.80;;;8.18;;
54201;SDS011;40108;53.152;5.844;2023-05-19T01:07:47;28.45;;;8.98;;
54201;SDS011;40108;53.152;5.844;2023-05-19T01:10:17;19.55;;;7.47;;
54201;SDS011;40108;53.152;5.844;2023-05-19T01:12:44;19.13;;;7.50;;
54201;SDS011;40108;53.152;5.844;2023-05-19T01:15:10;17.05;;;8.07;;
54201;SDS011;40108;53.152;5.844;2023-05-19T01:20:50;18.92;;;8.30;;
54201;SDS011;40108;53.152;5.844;2023-05-19T01:23:50;19.70;;;7.75;;
54201;SDS011;40108;53.152;5.844;2023-05-19T01:29:14;20.33;;;8.35;;
54201;SDS011;40108;53.152;5.844;2023-05-19T01:31:57;19.73;;;7.47;;
54201;SDS011;40108;53.152;5.844;2023-05-19T01:34:26;23.90;;;9.43;;
54201;SDS011;40108;53.152;5.844;2023-05-19T01:36:54;20.30;;;8.80;;
54201;SDS011;40108;53.152;5.844;2023-05-19T01:39:20;22.38;;;8.43;;
54201;SDS011;40108;53.152;5.844;2023-05-19T01:41:47;24.80;;;8.80;;
54201;SDS011;40108;53.152;5.844;2023-05-19T01:44:14;24.45;;;9.35;;
54201;SDS011;40108;53.152;5.844;2023-05-19T01:46:40;18.48;;;8.40;;
54201;SDS011;40108;53.152;5.844;2023-05-19T01:49:06;16.83;;;7.32;;
54201;SDS011;40108;53.152;5.844;2023-05-19T01:51:32;21.73;;;8.48;;
54201;SDS011;40108;53.152;5.844;2023-05-19T01:53:58;19.58;;;7.80;;
54201;SDS011;40108;53.152;5.844;2023-05-19T01:56:28;22.10;;;8.82;;
54201;SDS011;40108;53.152;5.844;2023-05-19T01:59:26;27.02;;;9.60;;
54201;SDS011;40108;53.152;5.844;2023-05-19T02:02:19;23.75;;;9.10;;
54201;SDS011;40108;53.152;5.844;2023-05-19T02:05:19;16.88;;;8.45;;
54201;SDS011;40108;53.152;5.844;2023-05-19T02:08:28;17.05;;;7.75;;
54201;SDS011;40108;53.152;5.844;2023-05-19T02:10:56;20.67;;;7.80;;
54201;SDS011;40108;53.152;5.844;2023-05-19T02:13:26;17.77;;;7.75;;
54201;SDS011;40108;53.152;5.844;2023-05-19T02:15:59;25.98;;;8.77;;
54201;SDS011;40108;53.152;5.844;2023-05-19T02:18:29;20.27;;;9.70;;
54201;SDS011;40108;53.152;5.844;2023-05-19T02:20:57;26.00;;;10.05;;
54201;SDS011;40108;53.152;5.844;2023-05-19T02:23:23;36.28;;;14.27;;
54201;SDS011;40108;53.152;5.844;2023-05-19T02:25:49;38.35;;;12.23;;
54201;SDS011;40108;53.152;5.844;2023-05-19T02:28:18;22.20;;;8.88;;
54201;SDS011;40108;53.152;5.844;2023-05-19T02:30:43;19.30;;;7.47;;
54201;SDS011;40108;53.152;5.844;2023-05-19T02:33:09;16.08;;;7.68;;
54201;SDS011;40108;53.152;5.844;2023-05-19T02:35:35;19.98;;;7.95;;
54201;SDS011;40108;53.152;5.844;2023-05-19T02:38:01;21.00;;;9.13;;
54201;SDS011;40108;53.152;5.844;2023-05-19T02:40:27;27.13;;;8.70;;
54201;SDS011;40108;53.152;5.844;2023-05-19T02:42:53;20.90;;;9.85;;
54201;SDS011;40108;53.152;5.844;2023-05-19T02:45:18;24.48;;;10.85;;
54201;SDS011;40108;53.152;5.844;2023-05-19T02:47:44;29.40;;;9.75;;
54201;SDS011;40108;53.152;5.844;2023-05-19T02:50:10;27.75;;;8.73;;
54201;SDS011;40108;53.152;5.844;2023-05-19T02:52:35;16.52;;;7.20;;
54201;SDS011;40108;53.152;5.844;2023-05-19T02:55:01;16.65;;;6.40;;
54201;SDS011;40108;53.152;5.844;2023-05-19T02:57:28;21.58;;;6.75;;
54201;SDS011;40108;53.152;5.844;2023-05-19T02:59:55;21.80;;;8.57;;
54201;SDS011;40108;53.152;5.844;2023-05-19T03:02:21;15.32;;;7.38;;
54201;SDS011;40108;53.152;5.844;2023-05-19T03:04:47;15.88;;;6.65;;
54201;SDS011;40108;53.152;5.844;2023-05-19T03:07:12;14.45;;;7.07;;
54201;SDS011;40108;53.152;5.844;2023-05-19T03:09:39;20.02;;;6.97;;
54201;SDS011;40108;53.152;5.844;2023-05-19T03:12:05;21.38;;;8.18;;
54201;SDS011;40108;53.152;5.844;2023-05-19T03:14:34;25.50;;;8.77;;
54201;SDS011;40108;53.152;5.844;2023-05-19T03:17:03;16.60;;;7.23;;
54201;SDS011;40108;53.152;5.844;2023-05-19T03:19:31;16.05;;;6.95;;
54201;SDS011;40108;53.152;5.844;2023-05-19T03:21:57;18.77;;;7.28;;
54201;SDS011;40108;53.152;5.844;2023-05-19T03:24:22;15.70;;;7.03;;
54201;SDS011;40108;53.152;5.844;2023-05-19T03:26:48;25.75;;;8.68;;
54201;SDS011;40108;53.152;5.844;2023-05-19T03:29:14;14.10;;;6.97;;
54201;SDS011;40108;53.152;5.844;2023-05-19T03:31:40;14.00;;;7.03;;
54201;SDS011;40108;53.152;5.844;2023-05-19T03:34:06;20.83;;;8.07;;
54201;SDS011;40108;53.152;5.844;2023-05-19T03:36:31;17.50;;;7.65;;
54201;SDS011;40108;53.152;5.844;2023-05-19T03:39:03;22.77;;;7.10;;
54201;SDS011;40108;53.152;5.844;2023-05-19T03:41:30;17.90;;;7.35;;
54201;SDS011;40108;53.152;5.844;2023-05-19T03:43:56;19.13;;;7.60;;
54201;SDS011;40108;53.152;5.844;2023-05-19T03:46:21;27.48;;;8.35;;
54201;SDS011;40108;53.152;5.844;2023-05-19T03:48:53;19.48;;;7.75;;
54201;SDS011;40108;53.152;5.844;2023-05-19T03:51:18;26.60;;;7.32;;
54201;SDS011;40108;53.152;5.844;2023-05-19T03:53:44;17.77;;;7.38;;
54201;SDS011;40108;53.152;5.844;2023-05-19T03:56:12;18.65;;;6.53;;
54201;SDS011;40108;53.152;5.844;2023-05-19T03:58:38;21.08;;;6.97;;
54201;SDS011;40108;53.152;5.844;2023-05-19T04:01:09;23.02;;;8.40;;
54201;SDS011;40108;53.152;5.844;2023-05-19T04:03:35;24.55;;;7.82;;
54201;SDS011;40108;53.152;5.844;2023-05-19T04:06:01;21.45;;;8.35;;
54201;SDS011;40108;53.152;5.844;2023-05-19T04:08:27;21.50;;;7.68;;
54201;SDS011;40108;53.152;5.844;2023-05-19T04:10:56;12.98;;;6.22;;
54201;SDS011;40108;53.152;5.844;2023-05-19T04:13:22;18.73;;;6.55;;
54201;SDS011;40108;53.152;5.844;2023-05-19T04:15:53;21.90;;;6.60;;
54201;SDS011;40108;53.152;5.844;2023-05-19T04:18:19;20.65;;;7.13;;
54201;SDS011;40108;53.152;5.844;2023-05-19T04:20:47;18.63;;;6.95;;
54201;SDS011;40108;53.152;5.844;2023-05-19T04:23:13;22.35;;;7.63;;
54201;SDS011;40108;53.152;5.844;2023-05-19T04:25:39;23.15;;;9.18;;
54201;SDS011;40108;53.152;5.844;2023-05-19T04:28:07;20.00;;;7.95;;
54201;SDS011;40108;53.152;5.844;2023-05-19T04:30:33;23.90;;;7.55;;
54201;SDS011;40108;53.152;5.844;2023-05-19T04:33:00;18.92;;;7.32;;
54201;SDS011;40108;53.152;5.844;2023-05-19T04:35:30;22.52;;;6.97;;
54201;SDS011;40108;53.152;5.844;2023-05-19T04:37:59;17.73;;;7.22;;
54201;SDS011;40108;53.152;5.844;2023-05-19T04:40:26;30.58;;;9.02;;
54201;SDS011;40108;53.152;5.844;2023-05-19T04:42:54;20.27;;;7.53;;
54201;SDS011;40108;53.152;5.844;2023-05-19T04:45:21;18.45;;;6.93;;
54201;SDS011;40108;53.152;5.844;2023-05-19T04:47:49;16.58;;;6.53;;
54201;SDS011;40108;53.152;5.844;2023-05-19T04:50:16;22.02;;;7.72;;
54201;SDS011;40108;53.152;5.844;2023-05-19T04:52:45;18.35;;;6.88;;
54201;SDS011;40108;53.152;5.844;2023-05-19T04:55:13;20.90;;;7.35;;
54201;SDS011;40108;53.152;5.844;2023-05-19T04:57:44;16.42;;;6.68;;
54201;SDS011;40108;53.152;5.844;2023-05-19T05:00:13;17.25;;;6.93;;
54201;SDS011;40108;53.152;5.844;2023-05-19T05:02:42;24.90;;;7.07;;
54201;SDS011;40108;53.152;5.844;2023-05-19T05:05:07;17.33;;;7.13;;
54201;SDS011;40108;53.152;5.844;2023-05-19T05:07:36;25.30;;;7.70;;
54201;SDS011;40108;53.152;5.844;2023-05-19T05:10:02;18.27;;;7.05;;
54201;SDS011;40108;53.152;5.844;2023-05-19T05:12:31;18.95;;;6.70;;
54201;SDS011;40108;53.152;5.844;2023-05-19T05:14:57;23.77;;;7.80;;
54201;SDS011;40108;53.152;5.844;2023-05-19T05:17:23;20.90;;;7.72;;
54201;SDS011;40108;53.152;5.844;2023-05-19T05:19:49;22.75;;;7.78;;
54201;SDS011;40108;53.152;5.844;2023-05-19T05:22:18;22.13;;;7.93;;
54201;SDS011;40108;53.152;5.844;2023-05-19T05:24:46;25.90;;;7.97;;
54201;SDS011;40108;53.152;5.844;2023-05-19T05:27:13;21.10;;;7.32;;
54201;SDS011;40108;53.152;5.844;2023-05-19T05:29:39;21.90;;;7.13;;
54201;SDS011;40108;53.152;5.844;2023-05-19T05:32:07;23.60;;;8.25;;
54201;SDS011;40108;53.152;5.844;2023-05-19T05:34:33;24.48;;;7.70;;
54201;SDS011;40108;53.152;5.844;2023-05-19T05:37:01;24.17;;;7.10;;
54201;SDS011;40108;53.152;5.844;2023-05-19T05:39:27;27.88;;;7.40;;
54201;SDS011;40108;53.152;5.844;2023-05-19T05:41:58;18.75;;;6.75;;
54201;SDS011;40108;53.152;5.844;2023-05-19T05:44:26;18.65;;;6.78;;
54201;SDS011;40108;53.152;5.844;2023-05-19T05:46:54;21.42;;;6.65;;
54201;SDS011;40108;53.152;5.844;2023-05-19T05:49:22;27.52;;;6.57;;
54201;SDS011;40108;53.152;5.844;2023-05-19T05:51:51;22.33;;;6.75;;
54201;SDS011;40108;53.152;5.844;2023-05-19T05:54:17;16.40;;;6.55;;
54201;SDS011;40108;53.152;5.844;2023-05-19T05:56:56;16.88;;;5.70;;
54201;SDS011;40108;53.152;5.844;2023-05-19T05:59:27;22.53;;;5.50;;
54201;SDS011;40108;53.152;5.844;2023-05-19T06:01:56;18.05;;;5.60;;
54201;SDS011;40108;53.152;5.844;2023-05-19T06:04:22;16.73;;;5.38;;
54201;SDS011;40108;53.152;5.844;2023-05-19T06:06:49;16.40;;;5.28;;
54201;SDS011;40108;53.152;5.844;2023-05-19T06:09:18;15.52;;;5.40;;
54201;SDS011;40108;53.152;5.844;2023-05-19T06:11:56;15.65;;;5.10;;
54201;SDS011;40108;53.152;5.844;2023-05-19T06:14:25;12.25;;;5.40;;
54201;SDS011;40108;53.152;5.844;2023-05-19T06:17:01;14.23;;;5.10;;
54201;SDS011;40108;53.152;5.844;2023-05-19T06:19:47;16.25;;;5.15;;
54201;SDS011;40108;53.152;5.844;2023-05-19T06:22:16;18.92;;;5.10;;
54201;SDS011;40108;53.152;5.844;2023-05-19T06:24:46;13.32;;;6.03;;
54201;SDS011;40108;53.152;5.844;2023-05-19T06:27:17;20.70;;;5.47;;
54201;SDS011;40108;53.152;5.844;2023-05-19T06:29:51;10.48;;;4.50;;
54201;SDS011;40108;53.152;5.844;2023-05-19T06:32:22;18.23;;;6.30;;
54201;SDS011;40108;53.152;5.844;2023-05-19T06:34:48;12.93;;;4.63;;
54201;SDS011;40108;53.152;5.844;2023-05-19T06:37:25;13.30;;;4.40;;
54201;SDS011;40108;53.152;5.844;2023-05-19T06:39:56;10.48;;;4.30;;
54201;SDS011;40108;53.152;5.844;2023-05-19T06:42:29;11.15;;;4.22;;
54201;SDS011;40108;53.152;5.844;2023-05-19T06:44:55;14.88;;;4.80;;
54201;SDS011;40108;53.152;5.844;2023-05-19T06:47:30;12.75;;;4.30;;
54201;SDS011;40108;53.152;5.844;2023-05-19T06:50:18;14.27;;;4.88;;
54201;SDS011;40108;53.152;5.844;2023-05-19T06:52:51;15.65;;;5.13;;
54201;SDS011;40108;53.152;5.844;2023-05-19T06:55:45;14.07;;;4.25;;
54201;SDS011;40108;53.152;5.844;2023-05-19T06:58:19;15.30;;;4.43;;
54201;SDS011;40108;53.152;5.844;2023-05-19T07:00:55;13.50;;;4.07;;
54201;SDS011;40108;53.152;5.844;2023-05-19T07:03:34;11.45;;;4.28;;
54201;SDS011;40108;53.152;5.844;2023-05-19T07:06:29;9.35;;;3.72;;
54201;SDS011;40108;53.152;5.844;2023-05-19T07:09:04;14.05;;;4.05;;
54201;SDS011;40108;53.152;5.844;2023-05-19T07:11:46;9.95;;;3.88;;
54201;SDS011;40108;53.152;5.844;2023-05-19T07:14:19;9.38;;;2.88;;
54201;SDS011;40108;53.152;5.844;2023-05-19T07:16:57;10.40;;;4.32;;
54201;SDS011;40108;53.152;5.844;2023-05-19T07:19:31;10.85;;;3.88;;
54201;SDS011;40108;53.152;5.844;2023-05-19T07:22:04;12.82;;;3.70;;
54201;SDS011;40108;53.152;5.844;2023-05-19T07:24:41;11.07;;;3.20;;
54201;SDS011;40108;53.152;5.844;2023-05-19T07:27:32;14.90;;;3.75;;
54201;SDS011;40108;53.152;5.844;2023-05-19T07:30:07;9.48;;;2.88;;
54201;SDS011;40108;53.152;5.844;2023-05-19T07:32:36;9.57;;;3.10;;
54201;SDS011;40108;53.152;5.844;2023-05-19T07:35:05;12.27;;;3.03;;
54201;SDS011;40108;53.152;5.844;2023-05-19T07:37:36;10.50;;;3.17;;
54201;SDS011;40108;53.152;5.844;2023-05-19T07:40:02;12.70;;;2.97;;
54201;SDS011;40108;53.152;5.844;2023-05-19T07:42:36;13.60;;;3.65;;
54201;SDS011;40108;53.152;5.844;2023-05-19T07:45:11;14.52;;;3.28;;
54201;SDS011;40108;53.152;5.844;2023-05-19T07:47:43;10.20;;;2.40;;
54201;SDS011;40108;53.152;5.844;2023-05-19T07:50:21;10.00;;;2.72;;
54201;SDS011;40108;53.152;5.844;2023-05-19T07:52:49;9.23;;;2.58;;
54201;SDS011;40108;53.152;5.844;2023-05-19T07:55:23;11.68;;;2.90;;
54201;SDS011;40108;53.152;5.844;2023-05-19T07:57:56;8.75;;;2.72;;
54201;SDS011;40108;53.152;5.844;2023-05-19T08:00:22;7.65;;;2.60;;
54201;SDS011;40108;53.152;5.844;2023-05-19T08:02:54;9.70;;;2.25;;
54201;SDS011;40108;53.152;5.844;2023-05-19T08:05:30;7.03;;;2.30;;
54201;SDS011;40108;53.152;5.844;2023-05-19T08:08:15;8.95;;;2.55;;
54201;SDS011;40108;53.152;5.844;2023-05-19T08:10:54;10.00;;;2.90;;
54201;SDS011;40108;53.152;5.844;2023-05-19T08:13:20;10.07;;;2.85;;
54201;SDS011;40108;53.152;5.844;2023-05-19T08:15:49;10.93;;;2.70;;
54201;SDS011;40108;53.152;5.844;2023-05-19T08:18:18;9.55;;;2.83;;
54201;SDS011;40108;53.152;5.844;2023-05-19T08:21:02;8.27;;;2.83;;
54201;SDS011;40108;53.152;5.844;2023-05-19T08:23:31;11.75;;;2.65;;
54201;SDS011;40108;53.152;5.844;2023-05-19T08:26:01;6.75;;;2.55;;
54201;SDS011;40108;53.152;5.844;2023-05-19T08:28:38;9.27;;;2.90;;
54201;SDS011;40108;53.152;5.844;2023-05-19T08:31:16;9.52;;;2.35;;
54201;SDS011;40108;53.152;5.844;2023-05-19T08:33:45;9.55;;;3.58;;
54201;SDS011;40108;53.152;5.844;2023-05-19T08:36:37;10.98;;;2.70;;
54201;SDS011;40108;53.152;5.844;2023-05-19T08:39:11;10.48;;;2.70;;
54201;SDS011;40108;53.152;5.844;2023-05-19T08:41:50;11.70;;;2.88;;
54201;SDS011;40108;53.152;5.844;2023-05-19T08:44:29;7.93;;;2.80;;
54201;SDS011;40108;53.152;5.844;2023-05-19T08:47:04;9.43;;;2.70;;
54201;SDS011;40108;53.152;5.844;2023-05-19T08:49:46;8.00;;;3.00;;
54201;SDS011;40108;53.152;5.844;2023-05-19T08:57:41;9.70;;;3.00;;
54201;SDS011;40108;53.152;5.844;2023-05-19T09:00:08;7.10;;;3.05;;
54201;SDS011;40108;53.152;5.844;2023-05-19T09:02:37;8.95;;;2.88;;
54201;SDS011;40108;53.152;5.844;2023-05-19T09:05:04;8.35;;;3.00;;
54201;SDS011;40108;53.152;5.844;2023-05-19T09:07:31;8.23;;;2.83;;
54201;SDS011;40108;53.152;5.844;2023-05-19T09:10:00;7.90;;;2.85;;
54201;SDS011;40108;53.152;5.844;2023-05-19T09:12:26;8.35;;;3.10;;
54201;SDS011;40108;53.152;5.844;2023-05-19T09:14:52;12.52;;;2.88;;
54201;SDS011;40108;53.152;5.844;2023-05-19T09:17:18;10.77;;;3.22;;
54201;SDS011;40108;53.152;5.844;2023-05-19T09:19:44;9.38;;;3.03;;
54201;SDS011;40108;53.152;5.844;2023-05-19T09:22:16;10.90;;;3.47;;
54201;SDS011;40108;53.152;5.844;2023-05-19T09:24:43;10.05;;;3.30;;
54201;SDS011;40108;53.152;5.844;2023-05-19T09:27:09;9.68;;;3.10;;
54201;SDS011;40108;53.152;5.844;2023-05-19T09:29:39;10.07;;;3.00;;
54201;SDS011;40108;53.152;5.844;2023-05-19T09:32:05;9.80;;;2.92;;
54201;SDS011;40108;53.152;5.844;2023-05-19T09:34:31;10.43;;;3.42;;
54201;SDS011;40108;53.152;5.844;2023-05-19T09:37:00;14.63;;;3.78;;
54201;SDS011;40108;53.152;5.844;2023-05-19T09:39:37;10.20;;;3.20;;
54201;SDS011;40108;53.152;5.844;2023-05-19T09:42:13;10.98;;;3.22;;
54201;SDS011;40108;53.152;5.844;2023-05-19T09:44:47;9.75;;;3.33;;
54201;SDS011;40108;53.152;5.844;2023-05-19T09:47:16;9.27;;;3.55;;
54201;SDS011;40108;53.152;5.844;2023-05-19T09:49:49;9.68;;;3.58;;
54201;SDS011;40108;53.152;5.844;2023-05-19T09:52:36;7.00;;;3.33;;
54201;SDS011;40108;53.152;5.844;2023-05-19T09:55:15;6.55;;;3.47;;
54201;SDS011;40108;53.152;5.844;2023-05-19T09:57:51;11.48;;;3.42;;
54201;SDS011;40108;53.152;5.844;2023-05-19T10:00:24;8.80;;;3.50;;
54201;SDS011;40108;53.152;5.844;2023-05-19T10:02:56;10.98;;;3.67;;
54201;SDS011;40108;53.152;5.844;2023-05-19T10:05:30;7.68;;;3.22;;
54201;SDS011;40108;53.152;5.844;2023-05-19T10:08:14;9.13;;;3.35;;
54201;SDS011;40108;53.152;5.844;2023-05-19T10:11:01;9.40;;;3.22;;
54201;SDS011;40108;53.152;5.844;2023-05-19T10:16:10;10.88;;;3.35;;
54201;SDS011;40108;53.152;5.844;2023-05-19T10:18:40;9.02;;;3.33;;
54201;SDS011;40108;53.152;5.844;2023-05-19T10:21:09;8.38;;;3.58;;
54201;SDS011;40108;53.152;5.844;2023-05-19T10:23:38;11.05;;;3.55;;
54201;SDS011;40108;53.152;5.844;2023-05-19T10:26:06;9.25;;;3.33;;
54201;SDS011;40108;53.152;5.844;2023-05-19T10:28:53;8.52;;;3.10;;
54201;SDS011;40108;53.152;5.844;2023-05-19T10:31:25;8.63;;;3.55;;
54201;SDS011;40108;53.152;5.844;2023-05-19T10:37:19;13.50;;;3.47;;
54201;SDS011;40108;53.152;5.844;2023-05-19T10:40:08;11.98;;;3.30;;
54201;SDS011;40108;53.152;5.844;2023-05-19T10:45:50;10.38;;;3.65;;
54201;SDS011;40108;53.152;5.844;2023-05-19T10:48:20;9.05;;;3.20;;
54201;SDS011;40108;53.152;5.844;2023-05-19T10:51:03;10.20;;;3.58;;
54201;SDS011;40108;53.152;5.844;2023-05-19T10:53:39;7.60;;;3.25;;
54201;SDS011;40108;53.152;5.844;2023-05-19T10:56:32;7.70;;;3.67;;
54201;SDS011;40108;53.152;5.844;2023-05-19T10:59:00;10.32;;;2.97;;
54201;SDS011;40108;53.152;5.844;2023-05-19T11:01:34;7.80;;;3.30;;
54201;SDS011;40108;53.152;5.844;2023-05-19T11:04:03;7.57;;;3.10;;
54201;SDS011;40108;53.152;5.844;2023-05-19T11:06:43;10.73;;;3.17;;
54201;SDS011;40108;53.152;5.844;2023-05-19T11:09:19;11.38;;;3.50;;
54201;SDS011;40108;53.152;5.844;2023-05-19T11:12:02;7.60;;;3.33;;
54201;SDS011;40108;53.152;5.844;2023-05-19T11:14:33;8.13;;;3.15;;
54201;SDS011;40108;53.152;5.844;2023-05-19T11:17:01;8.90;;;3.10;;
54201;SDS011;40108;53.152;5.844;2023-05-19T11:19:35;9.82;;;3.25;;
54201;SDS011;40108;53.152;5.844;2023-05-19T11:22:11;9.63;;;3.20;;
54201;SDS011;40108;53.152;5.844;2023-05-19T11:24:49;10.95;;;2.97;;
54201;SDS011;40108;53.152;5.844;2023-05-19T11:30:00;7.32;;;3.00;;
54201;SDS011;40108;53.152;5.844;2023-05-19T11:35:19;8.13;;;2.83;;
54201;SDS011;40108;53.152;5.844;2023-05-19T11:37:57;7.93;;;2.80;;
54201;SDS011;40108;53.152;5.844;2023-05-19T11:40:31;8.30;;;2.85;;
54201;SDS011;40108;53.152;5.844;2023-05-19T11:43:02;8.52;;;2.88;;
54201;SDS011;40108;53.152;5.844;2023-05-19T11:45:35;12.98;;;3.53;;
54201;SDS011;40108;53.152;5.844;2023-05-19T11:48:14;8.98;;;3.38;;
54201;SDS011;40108;53.152;5.844;2023-05-19T11:50:47;10.07;;;2.70;;
54201;SDS011;40108;53.152;5.844;2023-05-19T11:53:26;14.38;;;3.72;;
54201;SDS011;40108;53.152;5.844;2023-05-19T11:56:06;9.68;;;2.83;;
54201;SDS011;40108;53.152;5.844;2023-05-19T11:58:43;7.03;;;2.38;;
54201;SDS011;40108;53.152;5.844;2023-05-19T12:01:14;8.95;;;2.53;;
54201;SDS011;40108;53.152;5.844;2023-05-19T12:03:52;8.88;;;2.80;;
54201;SDS011;40108;53.152;5.844;2023-05-19T12:06:25;8.30;;;2.38;;
54201;SDS011;40108;53.152;5.844;2023-05-19T12:08:57;12.50;;;2.97;;
54201;SDS011;40108;53.152;5.844;2023-05-19T12:11:32;9.95;;;2.97;;
54201;SDS011;40108;53.152;5.844;2023-05-19T12:14:02;7.30;;;2.97;;
54201;SDS011;40108;53.152;5.844;2023-05-19T12:16:50;9.18;;;3.10;;
54201;SDS011;40108;53.152;5.844;2023-05-19T12:19:54;7.82;;;2.78;;
54201;SDS011;40108;53.152;5.844;2023-05-19T12:22:35;9.85;;;2.70;;
54201;SDS011;40108;53.152;5.844;2023-05-19T12:25:05;8.32;;;2.92;;
54201;SDS011;40108;53.152;5.844;2023-05-19T12:27:41;9.18;;;3.08;;
54201;SDS011;40108;53.152;5.844;2023-05-19T12:30:10;9.30;;;3.30;;
54201;SDS011;40108;53.152;5.844;2023-05-19T12:32:39;8.52;;;3.35;;
54201;SDS011;40108;53.152;5.844;2023-05-19T12:35:10;8.85;;;3.00;;
54201;SDS011;40108;53.152;5.844;2023-05-19T12:37:48;8.43;;;2.95;;
54201;SDS011;40108;53.152;5.844;2023-05-19T12:40:17;8.25;;;2.95;;
54201;SDS011;40108;53.152;5.844;2023-05-19T12:45:35;8.52;;;2.95;;
54201;SDS011;40108;53.152;5.844;2023-05-19T12:48:04;7.95;;;3.55;;
54201;SDS011;40108;53.152;5.844;2023-05-19T12:50:40;7.28;;;3.35;;
54201;SDS011;40108;53.152;5.844;2023-05-19T12:53:09;9.45;;;2.65;;
54201;SDS011;40108;53.152;5.844;2023-05-19T12:56:09;10.93;;;3.38;;
54201;SDS011;40108;53.152;5.844;2023-05-19T12:58:58;10.27;;;3.45;;
54201;SDS011;40108;53.152;5.844;2023-05-19T13:01:53;10.35;;;3.88;;
54201;SDS011;40108;53.152;5.844;2023-05-19T13:04:37;12.43;;;3.80;;
54201;SDS011;40108;53.152;5.844;2023-05-19T13:07:10;8.68;;;3.67;;
54201;SDS011;40108;53.152;5.844;2023-05-19T13:09:45;8.52;;;3.58;;
54201;SDS011;40108;53.152;5.844;2023-05-19T13:12:12;11.82;;;3.80;;
54201;SDS011;40108;53.152;5.844;2023-05-19T13:14:58;12.50;;;4.60;;
54201;SDS011;40108;53.152;5.844;2023-05-19T13:17:29;10.35;;;4.53;;
54201;SDS011;40108;53.152;5.844;2023-05-19T13:19:55;9.50;;;3.97;;
54201;SDS011;40108;53.152;5.844;2023-05-19T13:22:41;13.65;;;3.80;;
54201;SDS011;40108;53.152;5.844;2023-05-19T13:25:09;9.77;;;4.20;;
54201;SDS011;40108;53.152;5.844;2023-05-19T13:30:39;13.43;;;3.78;;
54201;SDS011;40108;53.152;5.844;2023-05-19T13:33:05;8.25;;;3.30;;
54201;SDS011;40108;53.152;5.844;2023-05-19T13:35:36;12.93;;;4.03;;
54201;SDS011;40108;53.152;5.844;2023-05-19T13:38:15;13.15;;;4.28;;
54201;SDS011;40108;53.152;5.844;2023-05-19T13:40:46;12.20;;;4.32;;
54201;SDS011;40108;53.152;5.844;2023-05-19T13:43:14;11.47;;;4.00;;
54201;SDS011;40108;53.152;5.844;2023-05-19T13:45:56;12.57;;;4.00;;
54201;SDS011;40108;53.152;5.844;2023-05-19T13:48:21;10.95;;;3.97;;
54201;SDS011;40108;53.152;5.844;2023-05-19T13:51:00;14.00;;;4.30;;
54201;SDS011;40108;53.152;5.844;2023-05-19T13:53:26;12.57;;;3.70;;
54201;SDS011;40108;53.152;5.844;2023-05-19T13:55:54;17.25;;;4.07;;
54201;SDS011;40108;53.152;5.844;2023-05-19T13:58:23;10.18;;;4.00;;
54201;SDS011;40108;53.152;5.844;2023-05-19T14:00:51;16.30;;;4.18;;
54201;SDS011;40108;53.152;5.844;2023-05-19T14:03:22;12.02;;;3.60;;
54201;SDS011;40108;53.152;5.844;2023-05-19T14:06:00;13.23;;;3.47;;
54201;SDS011;40108;53.152;5.844;2023-05-19T14:08:28;17.42;;;3.97;;
54201;SDS011;40108;53.152;5.844;2023-05-19T14:10:57;10.80;;;3.85;;
54201;SDS011;40108;53.152;5.844;2023-05-19T14:13:58;10.02;;;3.45;;
54201;SDS011;40108;53.152;5.844;2023-05-19T14:16:35;12.18;;;3.60;;
54201;SDS011;40108;53.152;5.844;2023-05-19T14:19:08;13.65;;;4.05;;
54201;SDS011;40108;53.152;5.844;2023-05-19T14:21:38;11.45;;;3.70;;
54201;SDS011;40108;53.152;5.844;2023-05-19T14:24:09;9.52;;;3.60;;
54201;SDS011;40108;53.152;5.844;2023-05-19T14:26:42;12.52;;;4.10;;
54201;SDS011;40108;53.152;5.844;2023-05-19T14:29:18;14.40;;;3.78;;
54201;SDS011;40108;53.152;5.844;2023-05-19T14:31:44;11.75;;;4.00;;
54201;SDS011;40108;53.152;5.844;2023-05-19T14:34:09;15.10;;;4.15;;
54201;SDS011;40108;53.152;5.844;2023-05-19T14:36:44;13.20;;;4.13;;
54201;SDS011;40108;53.152;5.844;2023-05-19T14:39:23;15.63;;;4.80;;
54201;SDS011;40108;53.152;5.844;2023-05-19T14:41:51;13.15;;;4.78;;
54201;SDS011;40108;53.152;5.844;2023-05-19T14:44:33;14.40;;;4.72;;
54201;SDS011;40108;53.152;5.844;2023-05-19T14:47:08;13.93;;;4.38;;
54201;SDS011;40108;53.152;5.844;2023-05-19T14:49:45;17.33;;;4.55;;
54201;SDS011;40108;53.152;5.844;2023-05-19T14:52:20;15.57;;;4.32;;
54201;SDS011;40108;53.152;5.844;2023-05-19T14:54:50;9.68;;;3.80;;
54201;SDS011;40108;53.152;5.844;2023-05-19T14:57:26;14.80;;;3.97;;
54201;SDS011;40108;53.152;5.844;2023-05-19T14:59:52;12.98;;;3.38;;
54201;SDS011;40108;53.152;5.844;2023-05-19T15:02:33;12.32;;;4.10;;
54201;SDS011;40108;53.152;5.844;2023-05-19T15:05:03;13.55;;;3.95;;
54201;SDS011;40108;53.152;5.844;2023-05-19T15:07:29;14.00;;;3.80;;
54201;SDS011;40108;53.152;5.844;2023-05-19T15:10:06;12.68;;;3.67;;
54201;SDS011;40108;53.152;5.844;2023-05-19T15:12:53;14.13;;;3.88;;
54201;SDS011;40108;53.152;5.844;2023-05-19T15:15:24;12.93;;;3.88;;
54201;SDS011;40108;53.152;5.844;2023-05-19T15:18:05;16.52;;;4.10;;
54201;SDS011;40108;53.152;5.844;2023-05-19T15:20:52;12.10;;;3.97;;
54201;SDS011;40108;53.152;5.844;2023-05-19T15:23:23;11.63;;;3.50;;
54201;SDS011;40108;53.152;5.844;2023-05-19T15:26:09;12.75;;;3.50;;
54201;SDS011;40108;53.152;5.844;2023-05-19T15:28:35;9.82;;;3.60;;
54201;SDS011;40108;53.152;5.844;2023-05-19T15:31:05;14.93;;;4.68;;
54201;SDS011;40108;53.152;5.844;2023-05-19T15:33:34;13.90;;;3.45;;
54201;SDS011;40108;53.152;5.844;2023-05-19T15:36:08;11.60;;;3.72;;
54201;SDS011;40108;53.152;5.844;2023-05-19T15:38:43;11.02;;;3.97;;